Time;durP1;ratioP1;P1;durP2;ratioP2;P2;SDS_P1;SDS_P2;PMS_P1;PMS_P2;Temp;Humidity;BMP_temperature;BMP_pressure;BME280_temperature;BME280_humidity;BME280_pressure;Samples;Min_cycle;Max_cycle;Signal;HPM_P1;HPM_P2
2023/05/23 00:00:57;;;;;;;59.05;32.25;;;13.70;99.90;;;;;;4992342;28;20044;-83
2023/05/23 00:03:24;;;;;;;71.32;31.60;;;13.70;99.90;;;;;;4958193;28;20045;-83
2023/05/23 00:05:50;;;;;;;52.15;28.88;;;13.70;99.90;;;;;;4975608;28;20034;-83
2023/05/23 00:08:16;;;;;;;52.50;29.08;;;13.70;99.90;;;;;;4973147;28;20040;-84
2023/05/23 00:10:42;;;;;;;51.45;27.45;;;13.70;99.90;;;;;;4963569;28;20045;-83
2023/05/23 00:13:08;;;;;;;53.22;26.85;;;13.70;99.90;;;;;;4976041;28;20050;-83
2023/05/23 00:15:40;;;;;;;42.50;25.70;;;13.70;99.90;;;;;;4953968;28;20049;-84
2023/05/23 00:18:07;;;;;;;50.97;27.35;;;13.70;99.90;;;;;;4978825;28;20065;-85
2023/05/23 00:20:41;;;;;;;46.15;26.70;;;13.70;99.90;;;;;;4966330;28;20486;-83
2023/05/23 00:23:17;;;;;;;43.55;24.33;;;13.70;99.90;;;;;;4960423;28;20042;-83
2023/05/23 00:25:47;;;;;;;46.15;25.05;;;13.80;99.90;;;;;;4961632;28;20037;-83
2023/05/23 00:28:13;;;;;;;50.85;29.35;;;13.80;99.90;;;;;;4956796;28;20045;-83
2023/05/23 00:30:39;;;;;;;55.03;29.45;;;13.70;99.90;;;;;;4979004;28;20046;-84
2023/05/23 00:33:05;;;;;;;49.83;27.10;;;13.70;99.90;;;;;;4994457;28;20061;-83
2023/05/23 00:35:30;;;;;;;51.15;25.98;;;13.70;99.90;;;;;;4993253;28;20061;-84
2023/05/23 00:37:56;;;;;;;46.75;26.55;;;13.80;99.90;;;;;;4973933;28;20521;-84
2023/05/23 00:40:22;;;;;;;46.97;23.73;;;13.80;99.90;;;;;;4961944;28;20065;-84
2023/05/23 00:42:50;;;;;;;41.17;23.90;;;13.80;99.90;;;;;;4972855;28;20045;-83
2023/05/23 00:45:16;;;;;;;41.72;24.20;;;13.80;99.90;;;;;;5000374;28;20038;-84
2023/05/23 00:47:43;;;;;;;38.22;22.40;;;13.80;99.90;;;;;;4955909;28;20153;-84
2023/05/23 00:50:11;;;;;;;37.08;22.75;;;13.80;99.90;;;;;;4982928;28;20070;-83
2023/05/23 00:52:37;;;;;;;37.78;21.95;;;13.80;99.90;;;;;;4996507;28;20065;-83
2023/05/23 00:55:04;;;;;;;33.65;21.65;;;13.80;99.90;;;;;;4979060;28;20109;-84
2023/05/23 00:57:33;;;;;;;36.60;24.33;;;13.80;99.90;;;;;;4979409;28;20053;-83
2023/05/23 01:00:00;;;;;;;38.20;24.33;;;13.80;99.90;;;;;;4996714;28;20112;-83
2023/05/23 01:02:26;;;;;;;39.83;23.63;;;13.70;99.90;;;;;;4976077;28;20081;-83
2023/05/23 01:04:54;;;;;;;36.25;23.92;;;13.70;99.90;;;;;;4979441;28;20144;-83
2023/05/23 01:07:20;;;;;;;37.53;24.17;;;13.70;99.90;;;;;;4976008;28;20038;-84
2023/05/23 01:09:46;;;;;;;38.58;24.90;;;13.70;99.90;;;;;;4982927;28;20131;-83
2023/05/23 01:12:33;;;;;;;34.35;21.27;;;13.70;99.90;;;;;;4958629;28;20050;-83
2023/05/23 01:15:07;;;;;;;33.50;21.55;;;13.60;99.90;;;;;;4957804;28;20505;-83
2023/05/23 01:18:03;;;;;;;36.78;21.45;;;13.60;99.90;;;;;;4965123;28;20327;-83
2023/05/23 01:20:51;;;;;;;30.42;20.98;;;13.60;99.90;;;;;;4962411;28;20045;-84
2023/05/23 01:23:36;;;;;;;28.17;18.38;;;13.50;99.90;;;;;;4967095;28;20488;-83
2023/05/23 01:26:37;;;;;;;25.35;17.02;;;13.50;99.90;;;;;;4978354;28;20042;-83
2023/05/23 01:29:10;;;;;;;27.58;16.83;;;13.50;99.90;;;;;;4935302;28;20050;-83
2023/05/23 01:31:41;;;;;;;22.02;15.27;;;13.50;99.90;;;;;;4996659;28;20060;-82
2023/05/23 01:34:09;;;;;;;21.27;15.13;;;13.50;99.90;;;;;;4978605;28;20099;-84
2023/05/23 01:36:41;;;;;;;22.15;14.18;;;13.40;99.90;;;;;;4978809;28;20108;-84
2023/05/23 01:39:07;;;;;;;20.17;12.75;;;13.40;99.90;;;;;;4960573;28;20050;-83
2023/05/23 01:41:32;;;;;;;23.83;13.68;;;13.30;99.90;;;;;;4959896;28;20508;-83
2023/05/23 01:43:58;;;;;;;24.80;13.93;;;13.30;99.90;;;;;;4994268;28;20271;-82
2023/05/23 01:46:28;;;;;;;24.08;13.75;;;13.30;99.90;;;;;;4980797;28;20041;-83
2023/05/23 01:48:55;;;;;;;30.30;14.40;;;13.30;99.90;;;;;;4965436;28;20390;-83
2023/05/23 01:51:22;;;;;;;29.05;15.07;;;13.20;99.90;;;;;;4976022;28;20166;-82
2023/05/23 01:53:52;;;;;;;32.40;14.38;;;13.20;99.90;;;;;;4980839;28;20437;-84
2023/05/23 01:56:20;;;;;;;30.48;15.25;;;13.10;99.90;;;;;;4995712;28;20057;-83
2023/05/23 01:58:46;;;;;;;33.90;16.75;;;13.00;99.90;;;;;;4967733;28;20042;-83
2023/05/23 02:01:12;;;;;;;37.15;16.50;;;12.90;99.90;;;;;;4973796;28;20091;-83
2023/05/23 02:03:38;;;;;;;38.42;16.23;;;12.80;99.90;;;;;;4997822;28;20037;-83
2023/05/23 02:06:04;;;;;;;42.15;17.00;;;12.80;99.90;;;;;;4960028;28;20412;-82
2023/05/23 02:08:30;;;;;;;38.15;18.10;;;12.80;99.90;;;;;;4955046;28;20584;-82
2023/05/23 02:10:56;;;;;;;32.67;15.63;;;12.80;99.90;;;;;;4999297;28;20433;-82
2023/05/23 02:13:21;;;;;;;34.80;17.95;;;12.70;99.90;;;;;;4966976;28;20088;-83
2023/05/23 02:15:47;;;;;;;35.22;15.27;;;12.70;99.90;;;;;;4975089;28;20521;-82
2023/05/23 02:18:12;;;;;;;30.77;15.50;;;12.70;99.90;;;;;;4995013;28;20034;-83
2023/05/23 02:20:39;;;;;;;37.65;14.60;;;12.60;99.90;;;;;;4961129;28;20041;-82
2023/05/23 02:23:05;;;;;;;33.00;15.13;;;12.60;99.90;;;;;;4991501;28;20046;-84
2023/05/23 02:25:31;;;;;;;36.70;13.05;;;12.60;99.90;;;;;;4980169;28;20116;-83
2023/05/23 02:27:57;;;;;;;29.67;13.85;;;12.50;99.90;;;;;;4997658;28;20100;-83
2023/05/23 02:30:22;;;;;;;29.05;14.65;;;12.50;99.90;;;;;;4976813;28;20136;-83
2023/05/23 02:32:51;;;;;;;33.22;14.05;;;12.60;99.90;;;;;;4992434;28;20049;-83
2023/05/23 02:35:16;;;;;;;31.58;13.98;;;12.50;99.90;;;;;;4997588;28;20251;-83
2023/05/23 02:37:42;;;;;;;26.15;12.85;;;12.50;99.90;;;;;;4971029;28;20497;-84
2023/05/23 02:40:08;;;;;;;22.45;12.18;;;12.50;99.90;;;;;;4976647;28;20049;-84
2023/05/23 02:42:33;;;;;;;26.73;11.23;;;12.50;99.90;;;;;;4957294;28;20064;-83
2023/05/23 02:44:59;;;;;;;25.35;10.73;;;12.40;99.90;;;;;;4974369;28;20465;-84
2023/05/23 02:47:25;;;;;;;28.25;11.50;;;12.40;99.90;;;;;;4981566;28;20042;-83
2023/05/23 02:49:50;;;;;;;26.02;11.25;;;12.30;99.90;;;;;;4994167;28;20511;-84
2023/05/23 02:52:18;;;;;;;27.38;12.48;;;12.30;99.90;;;;;;4977925;28;20053;-83
2023/05/23 02:54:44;;;;;;;35.10;12.00;;;12.20;99.90;;;;;;4976778;28;20034;-85
2023/05/23 02:57:10;;;;;;;36.00;12.38;;;12.20;99.90;;;;;;4979524;28;20075;-85
2023/05/23 02:59:39;;;;;;;29.27;12.10;;;12.10;99.90;;;;;;4984512;28;20030;-83
2023/05/23 03:02:05;;;;;;;36.75;11.25;;;12.20;99.90;;;;;;4998084;28;20045;-83
2023/05/23 03:04:31;;;;;;;32.30;12.32;;;12.20;99.90;;;;;;4976515;28;20125;-84
2023/05/23 03:06:58;;;;;;;28.90;11.63;;;12.20;99.90;;;;;;4977895;28;20057;-84
2023/05/23 03:09:24;;;;;;;29.45;11.25;;;12.10;99.90;;;;;;4991172;28;20523;-83
2023/05/23 03:11:50;;;;;;;30.98;10.38;;;12.20;99.90;;;;;;4977122;28;20171;-83
2023/05/23 03:14:19;;;;;;;26.13;10.57;;;12.20;99.90;;;;;;4994110;28;20153;-83
2023/05/23 03:16:44;;;;;;;29.23;10.48;;;12.20;99.90;;;;;;4978422;28;20042;-84
2023/05/23 03:19:10;;;;;;;32.63;11.85;;;12.20;99.90;;;;;;4974361;28;20038;-84
2023/05/23 03:21:36;;;;;;;26.30;11.88;;;12.20;99.90;;;;;;4964049;28;20038;-83
2023/05/23 03:24:02;;;;;;;30.40;12.35;;;12.20;99.90;;;;;;4998663;28;20045;-84
2023/05/23 03:26:28;;;;;;;26.30;11.70;;;12.20;99.90;;;;;;4995068;28;20469;-84
2023/05/23 03:28:56;;;;;;;20.83;9.15;;;12.20;99.90;;;;;;4964875;28;20108;-84
2023/05/23 03:31:22;;;;;;;28.00;11.68;;;12.20;99.90;;;;;;4981959;28;20048;-84
2023/05/23 03:33:47;;;;;;;26.77;9.85;;;12.20;99.90;;;;;;4989136;28;20045;-84
2023/05/23 03:36:13;;;;;;;22.92;10.07;;;12.20;99.90;;;;;;4964339;28;20029;-83
2023/05/23 03:38:38;;;;;;;19.33;8.27;;;12.20;99.90;;;;;;4960554;28;20084;-83
2023/05/23 03:41:04;;;;;;;26.13;9.48;;;12.10;99.90;;;;;;4996232;28;20033;-84
2023/05/23 03:43:30;;;;;;;21.67;8.95;;;12.20;99.90;;;;;;4976528;28;20588;-84
2023/05/23 03:45:56;;;;;;;22.73;8.10;;;12.10;99.90;;;;;;4994357;28;20494;-83
2023/05/23 03:48:21;;;;;;;23.73;8.85;;;12.20;99.90;;;;;;4993468;28;20157;-83
2023/05/23 03:50:47;;;;;;;23.45;7.95;;;12.10;99.90;;;;;;4977147;28;20397;-84
2023/05/23 03:53:12;;;;;;;24.23;8.70;;;12.10;99.90;;;;;;4961097;28;20393;-84
2023/05/23 03:55:38;;;;;;;25.13;8.45;;;12.10;99.90;;;;;;4999282;28;20048;-83
2023/05/23 03:58:04;;;;;;;24.35;8.55;;;12.10;99.90;;;;;;4983339;28;20469;-83
2023/05/23 04:00:32;;;;;;;23.02;8.45;;;12.10;99.90;;;;;;4975827;28;20037;-83
2023/05/23 04:02:58;;;;;;;21.98;8.90;;;12.10;99.90;;;;;;4990203;28;20037;-84
2023/05/23 04:05:24;;;;;;;19.63;7.90;;;12.10;99.90;;;;;;4978101;28;20818;-83
2023/05/23 04:07:50;;;;;;;20.40;7.63;;;12.10;99.90;;;;;;4975732;28;20042;-83
2023/05/23 04:10:17;;;;;;;21.13;8.55;;;12.00;99.90;;;;;;4991951;28;20034;-83
2023/05/23 04:12:42;;;;;;;17.50;7.35;;;12.00;99.90;;;;;;4963293;28;20054;-84
2023/05/23 04:15:08;;;;;;;21.35;7.57;;;12.00;99.90;;;;;;4975224;28;20048;-83
2023/05/23 04:17:34;;;;;;;15.43;6.72;;;12.00;99.90;;;;;;4992950;28;20566;-83
2023/05/23 04:20:01;;;;;;;18.48;7.82;;;12.00;99.90;;;;;;4981050;28;20042;-82
2023/05/23 04:22:27;;;;;;;20.33;7.97;;;11.90;99.90;;;;;;4987458;28;20609;-83
2023/05/23 04:24:52;;;;;;;17.67;8.00;;;12.00;99.90;;;;;;4984165;28;20496;-83
2023/05/23 04:27:21;;;;;;;16.25;8.25;;;12.00;99.90;;;;;;4977432;28;20133;-83
2023/05/23 04:29:46;;;;;;;21.13;8.60;;;12.00;99.90;;;;;;4997085;28;20042;-83
2023/05/23 04:32:13;;;;;;;20.08;7.57;;;12.00;99.90;;;;;;4997406;28;20398;-83
2023/05/23 04:34:43;;;;;;;19.10;6.68;;;11.90;99.90;;;;;;4979760;28;20070;-83
2023/05/23 04:37:16;;;;;;;24.23;7.25;;;11.90;99.90;;;;;;4997544;28;20050;-83
2023/05/23 04:39:42;;;;;;;21.67;6.10;;;11.90;99.90;;;;;;4995968;28;20040;-83
2023/05/23 04:42:08;;;;;;;15.27;5.88;;;11.90;99.90;;;;;;4995473;28;20071;-83
2023/05/23 04:44:36;;;;;;;18.90;6.22;;;11.90;99.90;;;;;;4967720;28;20069;-83
2023/05/23 04:47:02;;;;;;;14.23;5.28;;;11.90;99.90;;;;;;4978265;28;20140;-83
2023/05/23 04:49:28;;;;;;;15.35;5.30;;;11.90;99.90;;;;;;4980694;28;20129;-82
2023/05/23 04:51:53;;;;;;;16.67;5.97;;;11.90;99.90;;;;;;4962805;28;20072;-83
2023/05/23 04:54:19;;;;;;;21.30;5.60;;;11.90;99.90;;;;;;4966641;28;20038;-83
2023/05/23 04:56:45;;;;;;;15.20;5.57;;;11.80;99.90;;;;;;4980765;28;20185;-82
2023/05/23 04:59:12;;;;;;;18.63;5.82;;;11.80;99.90;;;;;;4974235;28;20042;-82
2023/05/23 05:01:39;;;;;;;19.65;6.78;;;11.80;99.90;;;;;;4979961;28;20037;-83
2023/05/23 05:04:08;;;;;;;21.33;7.47;;;11.80;99.90;;;;;;4980920;28;20232;-82
2023/05/23 05:06:37;;;;;;;24.13;6.72;;;11.80;99.90;;;;;;4976682;28;20081;-83
2023/05/23 05:09:02;;;;;;;20.75;8.50;;;11.80;99.90;;;;;;4980200;28;20270;-83
2023/05/23 05:11:28;;;;;;;28.20;9.70;;;11.70;99.90;;;;;;4975695;28;20038;-83
2023/05/23 05:13:54;;;;;;;29.60;11.20;;;11.60;99.90;;;;;;4974844;28;20059;-82
2023/05/23 05:16:20;;;;;;;28.25;10.18;;;11.70;99.90;;;;;;4939516;28;20203;-83
2023/05/23 05:18:46;;;;;;;27.63;10.95;;;11.60;99.90;;;;;;4958395;28;20038;-83
2023/05/23 05:21:11;;;;;;;22.98;11.15;;;11.50;99.90;;;;;;4972962;28;20043;-83
2023/05/23 05:23:37;;;;;;;23.83;10.13;;;11.50;99.90;;;;;;4957136;28;20493;-82
2023/05/23 05:26:04;;;;;;;21.75;9.45;;;11.50;99.90;;;;;;4943835;28;20054;-82
2023/05/23 05:28:29;;;;;;;21.60;8.65;;;11.40;99.90;;;;;;4959397;28;20377;-83
2023/05/23 05:30:57;;;;;;;20.83;8.05;;;11.40;99.90;;;;;;4954809;28;20081;-83
2023/05/23 05:33:23;;;;;;;19.42;8.40;;;11.30;99.90;;;;;;4957051;28;20039;-82
2023/05/23 05:35:52;;;;;;;23.48;7.70;;;11.20;99.90;;;;;;4956451;28;20501;-83
2023/05/23 05:38:18;;;;;;;19.92;7.25;;;11.20;99.90;;;;;;4953856;28;20046;-83
2023/05/23 05:40:44;;;;;;;16.15;7.35;;;11.20;99.90;;;;;;4939822;28;20042;-82
2023/05/23 05:43:09;;;;;;;16.70;7.40;;;11.20;99.90;;;;;;4974547;28;20039;-82
2023/05/23 05:45:39;;;;;;;22.08;7.35;;;11.20;99.90;;;;;;4957293;28;20042;-82
2023/05/23 05:48:05;;;;;;;18.30;7.47;;;11.20;99.90;;;;;;4955572;28;20050;-82
2023/05/23 05:50:30;;;;;;;22.73;7.53;;;11.20;99.90;;;;;;4960092;28;20104;-83
2023/05/23 05:52:56;;;;;;;12.77;6.30;;;11.10;99.90;;;;;;4946584;28;20043;-83
2023/05/23 05:55:21;;;;;;;16.13;6.63;;;11.10;99.90;;;;;;4935622;28;20199;-82
2023/05/23 05:57:47;;;;;;;15.50;6.25;;;11.10;99.90;;;;;;4956921;28;20043;-82
2023/05/23 06:00:14;;;;;;;13.63;5.55;;;11.10;99.90;;;;;;4969090;28;20118;-83
2023/05/23 06:02:43;;;;;;;14.30;5.78;;;11.10;99.90;;;;;;4970883;28;20043;-82
2023/05/23 06:05:15;;;;;;;12.82;5.30;;;11.20;99.90;;;;;;4956793;28;20058;-83
2023/05/23 06:07:41;;;;;;;12.02;6.05;;;11.20;99.90;;;;;;4966678;28;20065;-82
2023/05/23 06:10:08;;;;;;;10.10;5.30;;;11.20;99.90;;;;;;4953618;28;20047;-82
2023/05/23 06:12:34;;;;;;;14.75;4.97;;;11.20;99.90;;;;;;4961571;28;20050;-83
2023/05/23 06:15:00;;;;;;;16.52;5.72;;;11.20;99.90;;;;;;4971885;28;20118;-82
2023/05/23 06:17:27;;;;;;;14.32;6.43;;;11.20;99.90;;;;;;4974199;28;20209;-82
2023/05/23 06:19:53;;;;;;;17.73;5.88;;;11.20;99.90;;;;;;4994460;28;20115;-83
2023/05/23 06:22:19;;;;;;;15.25;6.03;;;11.20;99.90;;;;;;4974504;28;20050;-83
2023/05/23 06:24:47;;;;;;;14.52;5.35;;;11.20;99.90;;;;;;4972405;28;20289;-82
2023/05/23 06:27:13;;;;;;;14.05;5.10;;;11.10;99.90;;;;;;4966828;28;20481;-81
2023/05/23 06:29:38;;;;;;;14.90;5.18;;;11.10;99.90;;;;;;4977853;28;20046;-82
2023/05/23 06:32:05;;;;;;;14.10;4.90;;;11.00;99.90;;;;;;4984369;28;20501;-83
2023/05/23 06:34:30;;;;;;;10.52;5.20;;;11.00;99.90;;;;;;4977653;28;20035;-82
2023/05/23 06:36:59;;;;;;;16.13;4.85;;;11.00;99.90;;;;;;4970128;28;20481;-82
2023/05/23 06:39:28;;;;;;;18.27;5.32;;;11.00;99.90;;;;;;4976203;28;20034;-82
2023/05/23 06:41:54;;;;;;;12.52;4.55;;;11.00;99.90;;;;;;4974869;28;20491;-82
2023/05/23 06:44:20;;;;;;;17.98;5.10;;;11.00;99.90;;;;;;4991565;28;20470;-83
2023/05/23 06:46:46;;;;;;;14.52;4.85;;;10.90;99.90;;;;;;4967362;28;20049;-82
2023/05/23 06:49:12;;;;;;;15.95;5.13;;;11.10;99.90;;;;;;4970879;28;20042;-83
2023/05/23 06:51:37;;;;;;;18.63;4.40;;;11.20;99.90;;;;;;4974162;28;20062;-82
2023/05/23 06:54:03;;;;;;;16.38;5.47;;;11.20;99.90;;;;;;4977278;28;20124;-82
2023/05/23 06:56:32;;;;;;;18.20;4.70;;;11.30;99.90;;;;;;4977593;28;20049;-82
2023/05/23 06:58:58;;;;;;;21.77;5.03;;;11.40;99.90;;;;;;4970705;28;20120;-83
2023/05/23 07:01:25;;;;;;;19.50;4.57;;;11.50;99.90;;;;;;4974044;28;20069;-82
2023/05/23 07:03:50;;;;;;;17.60;4.82;;;11.60;99.90;;;;;;4970656;28;20318;-83
2023/05/23 07:06:19;;;;;;;18.70;5.10;;;11.60;99.90;;;;;;4986415;28;20038;-82
2023/05/23 07:08:48;;;;;;;13.40;4.20;;;11.70;99.90;;;;;;4982645;28;20196;-83
2023/05/23 07:11:13;;;;;;;17.23;4.85;;;11.70;99.90;;;;;;4970208;28;20034;-82
2023/05/23 07:13:42;;;;;;;20.70;5.75;;;11.70;99.90;;;;;;4971168;28;20101;-82
2023/05/23 07:16:07;;;;;;;16.77;5.22;;;11.60;99.90;;;;;;4985606;28;20058;-82
2023/05/23 07:18:33;;;;;;;16.30;4.97;;;11.70;99.90;;;;;;4974179;28;20054;-83
2023/05/23 07:20:59;;;;;;;17.48;5.38;;;11.60;99.90;;;;;;4974704;28;20042;-83
2023/05/23 07:23:25;;;;;;;27.48;5.40;;;11.40;99.90;;;;;;4988803;28;20105;-83
2023/05/23 07:25:50;;;;;;;23.77;5.45;;;11.40;99.90;;;;;;4970484;28;20042;-83
2023/05/23 07:28:19;;;;;;;19.75;5.00;;;11.40;99.90;;;;;;4985623;28;20046;-82
2023/05/23 07:30:45;;;;;;;17.17;4.60;;;11.30;99.90;;;;;;4987122;28;20042;-82
2023/05/23 07:33:10;;;;;;;18.98;4.70;;;11.20;99.90;;;;;;4977128;28;20108;-83
2023/05/23 07:35:43;;;;;;;17.42;4.88;;;11.20;99.90;;;;;;4972591;28;20547;-82
2023/05/23 07:38:08;;;;;;;20.58;4.70;;;11.20;99.90;;;;;;4990175;28;20043;-82
2023/05/23 07:40:34;;;;;;;13.65;3.92;;;11.30;99.90;;;;;;4987766;28;20506;-82
2023/05/23 07:43:03;;;;;;;20.55;4.60;;;11.40;99.90;;;;;;4988029;28;20305;-82
2023/05/23 07:45:29;;;;;;;19.77;4.47;;;11.40;99.90;;;;;;4986392;28;20043;-83
2023/05/23 07:47:54;;;;;;;19.52;4.53;;;11.40;99.90;;;;;;4974587;28;20041;-82
2023/05/23 07:50:20;;;;;;;18.27;4.18;;;11.50;99.90;;;;;;4977324;28;20375;-82
2023/05/23 07:52:50;;;;;;;14.18;4.85;;;11.50;99.90;;;;;;4975029;28;20034;-82
2023/05/23 07:55:23;;;;;;;15.25;4.22;;;11.80;99.90;;;;;;4989283;28;20035;-83
2023/05/23 07:57:55;;;;;;;15.98;4.40;;;11.90;99.90;;;;;;4972045;28;20046;-82
2023/05/23 08:00:21;;;;;;;24.15;4.78;;;11.80;99.90;;;;;;4976691;28;20113;-83
2023/05/23 08:02:47;;;;;;;14.85;3.88;;;12.00;99.90;;;;;;4974810;28;20460;-82
2023/05/23 08:05:12;;;;;;;19.73;4.20;;;12.10;99.90;;;;;;4964282;28;20048;-83
2023/05/23 08:07:38;;;;;;;15.75;3.88;;;12.10;99.90;;;;;;4973948;28;20047;-83
2023/05/23 08:10:04;;;;;;;17.20;4.60;;;12.20;99.90;;;;;;4979463;28;20060;-83
2023/05/23 08:12:30;;;;;;;16.92;4.00;;;12.20;99.90;;;;;;4976788;28;20053;-83
2023/05/23 08:14:55;;;;;;;19.10;4.03;;;12.40;99.90;;;;;;4993697;28;20049;-83
2023/05/23 08:17:22;;;;;;;15.52;3.97;;;12.20;99.90;;;;;;4986112;28;20695;-82
2023/05/23 08:19:47;;;;;;;14.27;4.18;;;12.10;99.90;;;;;;4980603;28;20630;-82
2023/05/23 08:22:13;;;;;;;22.95;5.07;;;12.10;99.90;;;;;;4972725;28;20106;-82
2023/05/23 08:24:39;;;;;;;20.13;4.18;;;12.20;99.90;;;;;;4990732;28;20034;-82
2023/05/23 08:27:06;;;;;;;24.27;4.43;;;12.60;99.90;;;;;;4971520;28;20129;-82
2023/05/23 08:29:33;;;;;;;20.67;4.15;;;12.50;99.90;;;;;;4979053;28;20046;-82
2023/05/23 08:32:00;;;;;;;18.27;4.40;;;12.60;99.90;;;;;;4978672;28;20034;-82
2023/05/23 08:34:25;;;;;;;19.77;4.68;;;12.50;99.90;;;;;;4977444;28;20274;-83
2023/05/23 08:36:51;;;;;;;16.80;4.32;;;12.50;99.90;;;;;;4991386;28;20639;-83
2023/05/23 08:39:17;;;;;;;15.27;3.97;;;12.50;99.90;;;;;;4979843;28;20394;-83
2023/05/23 08:41:43;;;;;;;17.02;4.90;;;12.50;99.90;;;;;;4964931;28;20034;-82
2023/05/23 08:44:12;;;;;;;13.48;4.60;;;12.50;99.90;;;;;;4993116;28;20117;-82
2023/05/23 08:46:43;;;;;;;15.65;4.38;;;12.80;99.90;;;;;;4985495;28;20129;-82
2023/05/23 08:49:09;;;;;;;14.75;4.20;;;13.00;99.90;;;;;;4980380;28;20073;-83
2023/05/23 08:51:39;;;;;;;15.15;4.00;;;13.40;99.90;;;;;;4957764;28;20101;-82
2023/05/23 08:54:05;;;;;;;14.18;4.32;;;13.50;99.90;;;;;;4972756;28;20109;-83
2023/05/23 08:56:31;;;;;;;19.13;3.88;;;13.00;99.90;;;;;;4964942;28;20050;-82
2023/05/23 08:58:59;;;;;;;14.18;4.30;;;12.70;99.90;;;;;;4990916;28;20343;-82
2023/05/23 09:01:26;;;;;;;18.65;3.85;;;12.60;99.90;;;;;;4976722;28;20548;-83
2023/05/23 09:03:52;;;;;;;13.85;4.13;;;12.60;99.90;;;;;;4992399;28;20508;-82
2023/05/23 09:06:20;;;;;;;15.77;3.78;;;13.00;99.90;;;;;;4973973;28;20185;-82
2023/05/23 09:08:45;;;;;;;19.52;4.65;;;13.50;99.90;;;;;;4994287;28;20042;-83
2023/05/23 09:11:12;;;;;;;14.75;4.25;;;13.50;99.90;;;;;;4973108;28;20371;-82
2023/05/23 09:13:41;;;;;;;19.30;4.25;;;13.10;99.90;;;;;;4992854;28;20050;-82
2023/05/23 09:16:12;;;;;;;17.13;4.35;;;12.80;99.90;;;;;;4993380;28;20382;-82
2023/05/23 09:18:42;;;;;;;27.75;5.10;;;12.60;99.90;;;;;;4976135;28;20140;-82
2023/05/23 09:21:09;;;;;;;19.35;4.82;;;13.10;99.90;;;;;;4986251;28;20462;-83
2023/05/23 09:23:40;;;;;;;14.48;4.10;;;13.10;99.90;;;;;;4991964;28;20085;-83
2023/05/23 09:26:14;;;;;;;14.40;4.03;;;13.00;99.90;;;;;;4976915;28;20136;-83
2023/05/23 09:28:45;;;;;;;19.85;3.88;;;13.30;99.90;;;;;;4984830;28;20045;-83
2023/05/23 09:31:15;;;;;;;14.23;3.80;;;13.20;99.90;;;;;;4989108;28;20200;-83
2023/05/23 09:33:48;;;;;;;18.55;3.90;;;13.00;99.90;;;;;;4974537;28;20573;-82
2023/05/23 09:36:14;;;;;;;18.90;3.70;;;12.80;99.90;;;;;;4959701;28;20058;-83
2023/05/23 09:38:41;;;;;;;14.85;4.28;;;13.10;99.90;;;;;;4977630;28;20077;-83
2023/05/23 09:41:07;;;;;;;13.77;3.42;;;12.70;99.90;;;;;;4991405;28;20045;-82
2023/05/23 09:43:39;;;;;;;16.17;4.05;;;13.00;99.90;;;;;;4971953;28;20078;-83
2023/05/23 09:46:11;;;;;;;12.60;3.42;;;13.10;99.90;;;;;;4995079;28;20042;-82
2023/05/23 09:48:41;;;;;;;13.38;3.85;;;13.10;99.90;;;;;;4975612;28;20547;-83
2023/05/23 09:51:09;;;;;;;16.02;4.55;;;13.30;99.90;;;;;;4976131;28;20450;-82
2023/05/23 09:53:35;;;;;;;12.43;3.72;;;13.30;99.90;;;;;;4979693;28;20571;-82
2023/05/23 09:56:06;;;;;;;16.38;4.05;;;13.50;99.90;;;;;;4954378;28;20046;-83
2023/05/23 09:58:33;;;;;;;15.93;4.10;;;13.10;99.90;;;;;;4991077;28;20052;-83
2023/05/23 10:01:02;;;;;;;13.43;3.60;;;13.80;99.90;;;;;;4991855;28;20117;-81
2023/05/23 10:03:38;;;;;;;12.95;3.72;;;14.40;99.90;;;;;;4977546;28;20064;-82
2023/05/23 10:06:11;;;;;;;15.75;3.92;;;14.00;99.90;;;;;;4972863;28;20526;-82
2023/05/23 10:08:44;;;;;;;16.08;4.50;;;14.20;99.90;;;;;;4978199;28;20053;-82
2023/05/23 10:11:16;;;;;;;16.60;3.67;;;13.60;99.90;;;;;;4966738;28;20046;-82
2023/05/23 10:13:47;;;;;;;15.20;3.55;;;13.90;99.90;;;;;;4992304;28;20050;-82
2023/05/23 10:16:26;;;;;;;17.02;3.58;;;13.60;99.90;;;;;;4960172;28;20065;-82
2023/05/23 10:18:59;;;;;;;16.75;3.67;;;13.10;99.90;;;;;;4959871;28;20035;-82
2023/05/23 10:21:44;;;;;;;19.50;4.13;;;13.60;99.90;;;;;;4977816;28;20047;-82
2023/05/23 10:24:13;;;;;;;12.73;3.42;;;14.20;99.90;;;;;;4971853;28;20050;-82
2023/05/23 10:26:44;;;;;;;14.57;3.42;;;13.90;99.90;;;;;;4974168;28;20053;-83
2023/05/23 10:29:09;;;;;;;13.65;3.97;;;13.30;99.90;;;;;;4972810;28;20109;-83
2023/05/23 10:31:35;;;;;;;15.23;3.83;;;13.40;99.90;;;;;;4972431;28;20042;-83
2023/05/23 10:34:17;;;;;;;15.95;3.65;;;13.50;99.90;;;;;;4961006;28;20108;-82
2023/05/23 10:37:01;;;;;;;16.52;3.85;;;13.30;99.90;;;;;;4988456;28;20038;-83
2023/05/23 10:39:45;;;;;;;13.63;3.72;;;13.20;99.90;;;;;;4993104;28;20764;-82
2023/05/23 10:42:27;;;;;;;11.85;3.17;;;13.10;99.90;;;;;;4974853;28;20210;-82
2023/05/23 10:44:52;;;;;;;11.63;3.35;;;13.20;99.90;;;;;;4971844;28;20045;-82
2023/05/23 10:47:27;;;;;;;17.80;4.25;;;13.20;99.90;;;;;;4986088;28;20046;-82
2023/05/23 10:49:54;;;;;;;16.17;3.83;;;13.20;99.90;;;;;;4968792;28;20152;-82
2023/05/23 10:52:25;;;;;;;14.55;3.60;;;13.20;99.90;;;;;;4977345;28;20039;-83
2023/05/23 10:54:52;;;;;;;17.20;3.70;;;13.00;99.90;;;;;;4976842;28;20069;-82
2023/05/23 10:57:27;;;;;;;16.65;4.47;;;13.20;99.90;;;;;;4971942;28;20108;-83
2023/05/23 10:59:53;;;;;;;17.48;4.00;;;13.20;99.90;;;;;;4973677;28;20043;-82
2023/05/23 11:02:29;;;;;;;15.35;3.40;;;13.10;99.90;;;;;;4976739;28;20457;-82
2023/05/23 11:05:17;;;;;;;12.15;3.75;;;13.10;99.90;;;;;;4974399;28;20035;-82
2023/05/23 11:07:42;;;;;;;13.15;3.13;;;13.30;99.90;;;;;;4989083;28;20056;-82
2023/05/23 11:10:16;;;;;;;10.32;2.85;;;14.00;99.90;;;;;;4961882;28;20042;-82
2023/05/23 11:12:43;;;;;;;10.07;3.00;;;14.10;99.90;;;;;;4957216;28;20053;-83
2023/05/23 11:15:21;;;;;;;12.50;3.78;;;13.70;1.00;;;;;;4989932;28;20074;-82
2023/05/23 11:17:54;;;;;;;12.48;3.22;;;13.60;40.20;;;;;;4971991;28;20077;-82
2023/05/23 11:20:25;;;;;;;15.85;3.75;;;13.70;99.90;;;;;;4981757;28;20617;-82
2023/05/23 11:23:00;;;;;;;16.13;3.22;;;13.60;1.00;;;;;;4984875;28;20413;-83
2023/05/23 11:25:47;;;;;;;11.83;3.07;;;13.60;1.00;;;;;;4994549;28;20053;-82
2023/05/23 11:28:13;;;;;;;17.98;3.67;;;13.60;80.70;;;;;;4987453;28;20042;-83
2023/05/23 11:30:40;;;;;;;17.63;3.70;;;13.40;99.90;;;;;;4974276;28;20050;-82
2023/05/23 11:33:12;;;;;;;10.70;3.70;;;13.30;99.90;;;;;;4991466;28;20267;-82
2023/05/23 11:35:42;;;;;;;12.00;3.70;;;13.60;99.90;;;;;;4971307;28;20565;-82
2023/05/23 11:38:09;;;;;;;24.13;4.03;;;13.60;99.90;;;;;;4975618;28;20185;-83
2023/05/23 11:40:39;;;;;;;16.88;4.18;;;13.70;99.90;;;;;;4978657;28;20543;-82
2023/05/23 11:43:18;;;;;;;12.57;3.72;;;13.70;99.90;;;;;;4988942;28;20054;-82
2023/05/23 11:45:46;;;;;;;15.52;3.78;;;14.00;99.90;;;;;;4985958;28;20572;-82
2023/05/23 11:48:15;;;;;;;12.88;3.20;;;14.10;1.00;;;;;;4957478;28;20042;-83
2023/05/23 11:50:45;;;;;;;12.98;3.60;;;13.60;99.90;;;;;;4974735;28;20131;-83
2023/05/23 11:53:11;;;;;;;13.90;4.10;;;13.40;99.90;;;;;;4987281;28;20042;-82
2023/05/23 11:55:40;;;;;;;14.57;4.07;;;13.40;99.90;;;;;;4976355;28;20084;-82
2023/05/23 11:58:05;;;;;;;12.82;3.92;;;14.30;99.90;;;;;;4970546;28;20383;-82
2023/05/23 12:00:31;;;;;;;9.77;2.90;;;14.80;99.90;;;;;;4977071;28;20280;-83
2023/05/23 12:02:57;;;;;;;15.50;3.28;;;14.50;7.00;;;;;;4969848;28;20038;-83
2023/05/23 12:05:22;;;;;;;14.30;3.33;;;14.40;99.90;;;;;;4975735;28;20362;-82
2023/05/23 12:07:49;;;;;;;12.07;3.55;;;14.10;99.90;;;;;;4971750;28;20043;-82
2023/05/23 12:10:16;;;;;;;14.73;3.33;;;13.50;99.90;;;;;;4978051;28;20125;-82
2023/05/23 12:12:43;;;;;;;7.57;2.85;;;14.20;1.00;;;;;;4987714;28;20042;-82
2023/05/23 12:15:10;;;;;;;15.27;3.78;;;14.50;99.90;;;;;;4975419;28;20082;-82
2023/05/23 12:17:37;;;;;;;16.77;3.45;;;14.20;99.90;;;;;;4992089;28;20078;-82
2023/05/23 12:20:06;;;;;;;12.05;3.47;;;14.00;99.90;;;;;;4970982;28;20046;-82
2023/05/23 12:22:32;;;;;;;11.35;3.00;;;14.40;99.90;;;;;;4968821;28;20042;-82
2023/05/23 12:24:58;;;;;;;13.20;3.78;;;14.20;80.00;;;;;;4966966;28;20049;-82
2023/05/23 12:27:34;;;;;;;14.10;3.42;;;14.20;1.00;;;;;;4972164;28;20038;-83
2023/05/23 12:30:06;;;;;;;10.27;3.55;;;14.10;99.90;;;;;;4976256;28;20035;-82
2023/05/23 12:32:32;;;;;;;10.25;2.97;;;14.10;1.00;;;;;;4972391;28;20034;-83
2023/05/23 12:34:58;;;;;;;13.45;3.40;;;13.80;41.20;;;;;;4955373;28;20051;-83
2023/05/23 12:37:24;;;;;;;10.98;3.33;;;14.00;99.90;;;;;;4972973;28;20027;-82